Time;durP1;ratioP1;P1;durP2;ratioP2;P2;SDS_P1;SDS_P2;PMS_P1;PMS_P2;Temp;Humidity;BMP_temperature;BMP_pressure;BME280_temperature;BME280_humidity;BME280_pressure;Samples;Min_cycle;Max_cycle;Signal;HPM_P1;HPM_P2
2023/05/16 00:00:17;;;;;;;2.35;1.42;;;16.20;64.70;;;;;;5048769;28;20034;-76
2023/05/16 00:02:42;;;;;;;2.15;1.50;;;16.20;64.80;;;;;;4999361;28;20441;-76
2023/05/16 00:05:13;;;;;;;2.70;1.40;;;16.10;64.80;;;;;;4999156;28;20120;-76
2023/05/16 00:07:42;;;;;;;1.67;1.27;;;16.20;64.80;;;;;;5016413;28;20049;-76
2023/05/16 00:10:08;;;;;;;6.05;1.38;;;16.10;64.80;;;;;;5016400;28;20470;-76
2023/05/16 00:12:35;;;;;;;2.50;1.40;;;16.10;64.80;;;;;;5016117;28;20507;-76
2023/05/16 00:15:07;;;;;;;2.97;1.30;;;16.10;64.80;;;;;;4999866;28;20163;-76
2023/05/16 00:17:34;;;;;;;1.98;1.17;;;16.00;64.80;;;;;;5031624;28;20030;-75
2023/05/16 00:20:06;;;;;;;2.50;1.20;;;16.00;65.50;;;;;;5015141;28;20397;-76
2023/05/16 00:22:32;;;;;;;3.75;1.60;;;16.00;64.90;;;;;;5016760;28;20088;-76
2023/05/16 00:24:58;;;;;;;2.60;1.30;;;15.90;64.80;;;;;;5016421;28;20038;-76
2023/05/16 00:27:24;;;;;;;2.95;1.58;;;15.90;64.80;;;;;;5015091;28;20037;-76
2023/05/16 00:29:49;;;;;;;5.22;1.42;;;15.90;64.80;;;;;;5016838;28;20030;-76
2023/05/16 00:32:17;;;;;;;4.15;1.90;;;15.90;64.80;;;;;;4999482;28;20055;-76
2023/05/16 00:34:43;;;;;;;3.08;1.50;;;15.80;64.80;;;;;;5031657;28;20028;-77
2023/05/16 00:37:08;;;;;;;3.42;1.58;;;15.80;64.80;;;;;;5014810;28;20034;-76
2023/05/16 00:39:36;;;;;;;2.78;1.20;;;15.70;64.80;;;;;;4983983;28;20042;-76
2023/05/16 00:42:02;;;;;;;2.22;1.20;;;15.70;64.80;;;;;;5014783;28;20505;-76
2023/05/16 00:44:27;;;;;;;1.63;1.08;;;15.70;64.80;;;;;;5014718;28;20117;-78
2023/05/16 00:46:53;;;;;;;2.20;1.10;;;15.70;64.80;;;;;;5016687;28;20042;-77
2023/05/16 00:49:20;;;;;;;4.05;1.52;;;15.70;64.90;;;;;;4998414;28;20030;-76
2023/05/16 00:51:47;;;;;;;2.75;1.40;;;15.60;64.90;;;;;;5015280;28;20040;-76
2023/05/16 00:54:12;;;;;;;3.25;1.40;;;15.60;64.90;;;;;;5047745;28;20045;-77
2023/05/16 00:56:39;;;;;;;2.17;1.10;;;15.60;64.90;;;;;;4998417;28;20030;-75
2023/05/16 00:59:05;;;;;;;2.03;1.17;;;15.60;64.90;;;;;;5030439;28;20040;-77
2023/05/16 01:01:32;;;;;;;2.90;1.40;;;15.50;64.80;;;;;;5013934;28;20045;-76
2023/05/16 01:03:59;;;;;;;2.70;1.40;;;15.50;64.90;;;;;;5015456;28;20026;-76
2023/05/16 01:06:26;;;;;;;3.47;1.50;;;15.50;64.90;;;;;;5015721;28;20042;-77
2023/05/16 01:08:51;;;;;;;2.95;1.27;;;15.40;64.90;;;;;;4999138;28;20111;-77
2023/05/16 01:11:43;;;;;;;2.85;1.20;;;15.40;64.80;;;;;;4997708;28;20041;-76
2023/05/16 01:14:55;;;;;;;2.47;1.20;;;15.40;64.90;;;;;;5014969;28;20072;-76
2023/05/16 01:17:32;;;;;;;2.88;1.23;;;15.30;64.90;;;;;;4993470;28;20502;-76
2023/05/16 01:20:14;;;;;;;2.25;1.35;;;15.30;64.90;;;;;;5028056;28;20038;-76
2023/05/16 01:22:50;;;;;;;3.10;1.20;;;15.20;64.80;;;;;;5014803;28;20038;-77
2023/05/16 01:25:27;;;;;;;1.20;1.00;;;15.30;65.00;;;;;;5014293;28;20455;-76
2023/05/16 01:27:53;;;;;;;2.50;1.40;;;15.20;64.90;;;;;;5014097;28;20064;-77
2023/05/16 01:30:21;;;;;;;4.32;1.60;;;15.20;65.00;;;;;;5013804;28;20026;-76
2023/05/16 01:32:47;;;;;;;2.72;1.15;;;15.10;65.00;;;;;;5015188;28;20030;-77
2023/05/16 01:35:16;;;;;;;2.10;1.23;;;15.10;65.00;;;;;;5013918;28;20033;-76
2023/05/16 01:37:57;;;;;;;2.97;1.30;;;15.10;65.10;;;;;;5013841;28;20502;-76
2023/05/16 01:40:29;;;;;;;3.20;1.23;;;15.10;65.10;;;;;;5014003;28;20113;-76
2023/05/16 01:42:57;;;;;;;2.75;1.30;;;15.10;65.10;;;;;;4998119;28;20038;-77
2023/05/16 01:45:28;;;;;;;2.15;1.40;;;15.00;65.00;;;;;;5013433;28;20053;-77
2023/05/16 01:48:15;;;;;;;2.15;1.27;;;15.00;65.10;;;;;;5030173;28;20091;-77
2023/05/16 01:50:56;;;;;;;2.85;1.40;;;15.00;65.20;;;;;;5014970;28;20057;-77
2023/05/16 01:53:28;;;;;;;2.03;1.38;;;14.90;65.10;;;;;;4997003;28;20045;-76
2023/05/16 01:56:00;;;;;;;1.73;1.10;;;14.90;65.10;;;;;;5046650;28;20505;-76
2023/05/16 01:58:30;;;;;;;2.22;1.20;;;14.90;65.20;;;;;;5013147;28;20033;-77
2023/05/16 02:01:02;;;;;;;1.65;1.10;;;14.80;65.20;;;;;;5014163;28;20026;-76
2023/05/16 02:03:30;;;;;;;2.55;1.23;;;14.80;65.20;;;;;;5013350;28;20057;-76
2023/05/16 02:05:56;;;;;;;2.85;1.38;;;14.80;65.20;;;;;;5029864;28;20120;-76
2023/05/16 02:08:23;;;;;;;2.42;1.23;;;14.70;65.20;;;;;;5029818;28;20076;-77
2023/05/16 02:10:49;;;;;;;1.92;1.20;;;14.70;65.20;;;;;;5014821;28;20368;-77
2023/05/16 02:13:15;;;;;;;2.53;1.33;;;14.70;65.20;;;;;;5017287;28;20052;-76
2023/05/16 02:15:40;;;;;;;1.55;1.00;;;14.70;65.20;;;;;;5014845;28;20034;-76
2023/05/16 02:18:08;;;;;;;3.00;1.20;;;14.60;65.20;;;;;;4997345;28;20034;-77
2023/05/16 02:20:34;;;;;;;2.90;1.30;;;14.60;65.30;;;;;;5029216;28;20521;-78
2023/05/16 02:23:00;;;;;;;2.63;1.10;;;14.60;65.30;;;;;;5013184;28;20048;-76
2023/05/16 02:25:26;;;;;;;3.42;1.40;;;14.60;65.30;;;;;;5046084;28;20033;-76
2023/05/16 02:27:51;;;;;;;2.25;1.10;;;14.50;65.30;;;;;;5013066;28;20367;-77
2023/05/16 02:30:17;;;;;;;1.95;1.25;;;14.50;65.30;;;;;;5046779;28;20099;-77
2023/05/16 02:32:47;;;;;;;2.00;1.23;;;14.40;65.30;;;;;;5013107;28;20475;-76
2023/05/16 02:35:14;;;;;;;3.40;1.30;;;14.50;65.30;;;;;;5013763;28;20034;-76
2023/05/16 02:37:40;;;;;;;2.05;1.13;;;14.40;65.30;;;;;;5012972;28;20045;-76
2023/05/16 02:40:07;;;;;;;3.45;1.35;;;14.40;65.30;;;;;;5013479;28;20030;-77
2023/05/16 02:42:35;;;;;;;2.55;1.40;;;14.40;65.40;;;;;;4997246;28;20030;-76
2023/05/16 02:45:01;;;;;;;2.83;1.30;;;14.40;65.40;;;;;;5012433;28;20054;-77
2023/05/16 02:47:27;;;;;;;1.83;1.13;;;14.30;65.40;;;;;;5012479;28;20482;-76
2023/05/16 02:49:53;;;;;;;2.60;1.45;;;14.30;65.40;;;;;;5012696;28;20038;-76
2023/05/16 02:52:19;;;;;;;2.22;1.23;;;14.30;65.40;;;;;;4996518;28;20079;-77
2023/05/16 02:54:45;;;;;;;2.53;1.77;;;14.30;65.50;;;;;;5029055;28;20029;-77
2023/05/16 02:57:11;;;;;;;2.83;1.17;;;14.20;65.40;;;;;;5028830;28;20026;-76
2023/05/16 02:59:37;;;;;;;2.50;1.15;;;14.20;65.50;;;;;;4995850;28;20467;-76
2023/05/16 03:02:03;;;;;;;1.63;1.23;;;14.20;65.50;;;;;;5013373;28;20042;-77
2023/05/16 03:04:29;;;;;;;3.13;1.05;;;14.10;65.50;;;;;;5029059;28;20021;-76
2023/05/16 03:06:55;;;;;;;2.67;1.20;;;14.10;65.50;;;;;;5012661;28;20121;-76
2023/05/16 03:09:21;;;;;;;2.03;1.17;;;14.10;65.50;;;;;;5012486;28;20036;-76
2023/05/16 03:11:47;;;;;;;2.35;1.20;;;14.10;65.50;;;;;;5045418;28;20470;-76
2023/05/16 03:14:12;;;;;;;2.85;1.13;;;14.10;65.50;;;;;;5028695;28;20034;-77
2023/05/16 03:16:40;;;;;;;2.35;1.20;;;14.00;65.50;;;;;;5012128;28;20042;-77
2023/05/16 03:19:06;;;;;;;2.22;1.20;;;14.00;65.60;;;;;;5029183;28;20084;-77
2023/05/16 03:21:32;;;;;;;2.97;1.30;;;14.00;65.60;;;;;;5013166;28;20033;-76
2023/05/16 03:23:58;;;;;;;3.30;1.35;;;14.00;65.60;;;;;;5014485;28;20041;-76
2023/05/16 03:26:24;;;;;;;3.03;1.50;;;13.90;65.60;;;;;;5049405;28;20531;-77
2023/05/16 03:28:50;;;;;;;2.47;1.42;;;13.90;65.60;;;;;;5017082;28;20034;-77
2023/05/16 03:31:16;;;;;;;3.67;1.30;;;13.90;65.70;;;;;;5016732;28;20535;-76
2023/05/16 03:33:42;;;;;;;1.92;1.42;;;13.80;65.60;;;;;;5032679;28;20525;-77
2023/05/16 03:36:09;;;;;;;2.47;1.38;;;13.80;65.70;;;;;;5049146;28;20030;-77
2023/05/16 03:38:35;;;;;;;2.60;1.38;;;13.80;65.70;;;;;;5017284;28;20021;-76
2023/05/16 03:41:01;;;;;;;3.92;1.52;;;13.80;65.70;;;;;;5032335;28;20049;-76
2023/05/16 03:43:27;;;;;;;2.58;1.30;;;13.80;65.70;;;;;;5017307;28;20042;-76
2023/05/16 03:45:52;;;;;;;3.08;1.30;;;13.80;65.70;;;;;;5016165;28;20050;-76
2023/05/16 03:48:18;;;;;;;2.55;1.40;;;13.70;65.80;;;;;;5016005;28;20124;-77
2023/05/16 03:50:44;;;;;;;4.03;1.52;;;13.70;65.70;;;;;;5000472;28;20080;-76
2023/05/16 03:53:10;;;;;;;2.13;1.40;;;13.70;65.80;;;;;;5017034;28;20128;-76
2023/05/16 03:55:36;;;;;;;1.90;1.30;;;13.70;65.80;;;;;;4999706;28;20457;-76
2023/05/16 03:58:02;;;;;;;2.45;1.25;;;13.70;65.80;;;;;;5015941;28;20127;-77
2023/05/16 04:00:28;;;;;;;1.55;1.20;;;13.60;65.80;;;;;;5032667;28;20068;-76
2023/05/16 04:02:54;;;;;;;3.00;1.50;;;13.60;65.80;;;;;;5016297;28;20049;-76
2023/05/16 04:05:20;;;;;;;2.40;1.30;;;13.60;65.80;;;;;;5015360;28;20511;-77
2023/05/16 04:07:45;;;;;;;3.42;1.17;;;13.60;65.80;;;;;;5015494;28;20116;-76
2023/05/16 04:10:11;;;;;;;1.58;1.20;;;13.60;65.90;;;;;;4982944;28;20088;-75
2023/05/16 04:12:37;;;;;;;2.08;1.30;;;13.50;65.80;;;;;;5016468;28;20057;-76
2023/05/16 04:15:04;;;;;;;2.63;1.50;;;13.60;65.90;;;;;;4999819;28;20504;-76
2023/05/16 04:17:30;;;;;;;2.42;1.27;;;13.50;65.90;;;;;;5015593;28;20046;-76
2023/05/16 04:19:56;;;;;;;2.50;1.30;;;13.50;66.00;;;;;;5015750;28;20034;-75
2023/05/16 04:22:22;;;;;;;3.13;1.20;;;13.50;66.00;;;;;;5031704;28;20044;-76
2023/05/16 04:24:48;;;;;;;2.17;1.20;;;13.50;66.00;;;;;;5031526;28;20058;-77
2023/05/16 04:27:13;;;;;;;2.75;1.25;;;13.40;66.00;;;;;;5015281;28;20045;-76
2023/05/16 04:29:39;;;;;;;1.98;1.10;;;13.40;66.00;;;;;;5048243;28;20110;-76
2023/05/16 04:32:06;;;;;;;3.15;1.30;;;13.40;66.00;;;;;;4999110;28;20124;-77
2023/05/16 04:34:33;;;;;;;1.77;1.15;;;13.40;66.10;;;;;;5015472;28;20057;-76
2023/05/16 04:36:59;;;;;;;1.27;1.00;;;13.40;66.10;;;;;;5031580;28;20026;-77
2023/05/16 04:39:24;;;;;;;2.08;1.10;;;13.40;66.10;;;;;;5015412;28;20030;-76
2023/05/16 04:41:51;;;;;;;1.67;1.20;;;13.40;66.10;;;;;;4998762;28;20368;-76
2023/05/16 04:44:16;;;;;;;4.43;1.60;;;13.40;66.10;;;;;;5048116;28;20103;-76
2023/05/16 04:46:42;;;;;;;2.38;1.20;;;13.40;66.20;;;;;;4998529;28;20546;-76
2023/05/16 04:49:10;;;;;;;1.55;1.25;;;13.40;66.20;;;;;;5015638;28;20037;-76
2023/05/16 04:51:35;;;;;;;2.20;1.50;;;13.40;66.20;;;;;;5015288;28;20037;-76
2023/05/16 04:54:01;;;;;;;2.78;1.52;;;13.40;66.20;;;;;;5015007;28;20034;-76
2023/05/16 04:56:27;;;;;;;2.28;1.33;;;13.40;66.20;;;;;;4983375;28;20113;-77
2023/05/16 04:58:53;;;;;;;1.73;1.23;;;13.40;66.30;;;;;;5001434;28;20547;-77
2023/05/16 05:01:19;;;;;;;1.75;1.23;;;13.40;66.30;;;;;;5016457;28;20122;-77
2023/05/16 05:03:45;;;;;;;1.77;1.10;;;13.40;66.30;;;;;;5016373;28;20490;-77
2023/05/16 05:06:10;;;;;;;1.83;1.30;;;13.30;66.20;;;;;;4998481;28;20054;-76
2023/05/16 05:08:36;;;;;;;3.63;1.30;;;13.40;66.30;;;;;;5014739;28;20030;-76
2023/05/16 05:11:02;;;;;;;3.45;1.20;;;13.30;66.30;;;;;;5014459;28;20077;-77
2023/05/16 05:13:28;;;;;;;1.58;1.10;;;13.30;66.30;;;;;;5014924;28;20026;-76
2023/05/16 05:15:54;;;;;;;2.65;1.40;;;13.30;66.30;;;;;;5014054;28;20041;-77
2023/05/16 05:18:19;;;;;;;2.17;1.40;;;13.30;66.30;;;;;;4998613;28;20037;-76
2023/05/16 05:20:45;;;;;;;2.63;1.30;;;13.30;66.30;;;;;;5014333;28;20044;-77
2023/05/16 05:23:11;;;;;;;1.85;1.20;;;13.30;66.40;;;;;;4997995;28;20038;-76
2023/05/16 05:25:38;;;;;;;2.65;1.30;;;13.30;66.40;;;;;;5014335;28;20057;-79
2023/05/16 05:28:03;;;;;;;2.70;1.20;;;13.30;66.40;;;;;;5014568;28;20116;-76
2023/05/16 05:30:29;;;;;;;2.67;1.40;;;13.30;66.40;;;;;;5047253;28;20523;-76
2023/05/16 05:32:55;;;;;;;2.90;1.20;;;13.30;66.40;;;;;;5013939;28;20038;-75
2023/05/16 05:35:20;;;;;;;2.85;1.48;;;13.30;66.40;;;;;;5014304;28;20029;-75
2023/05/16 05:37:46;;;;;;;2.30;1.35;;;13.30;66.50;;;;;;5014192;28;20362;-76
2023/05/16 05:40:12;;;;;;;2.55;1.30;;;13.30;66.50;;;;;;4997924;28;20455;-76
2023/05/16 05:42:38;;;;;;;1.40;1.30;;;13.30;66.50;;;;;;5047199;28;20046;-76
2023/05/16 05:45:04;;;;;;;2.50;1.20;;;13.30;66.50;;;;;;4997131;28;20042;-75
2023/05/16 05:47:30;;;;;;;1.73;1.30;;;13.30;66.50;;;;;;4997378;28;20026;-75
2023/05/16 05:49:56;;;;;;;2.90;1.30;;;13.30;66.50;;;;;;5013748;28;20041;-75
2023/05/16 05:52:22;;;;;;;2.42;1.30;;;13.30;66.50;;;;;;4997837;28;20061;-75
2023/05/16 05:54:48;;;;;;;2.33;1.25;;;13.30;66.50;;;;;;5030225;28;20060;-76
2023/05/16 05:57:13;;;;;;;1.52;1.20;;;13.30;66.50;;;;;;5046729;28;20073;-76
2023/05/16 05:59:39;;;;;;;1.27;1.17;;;13.30;66.50;;;;;;4997371;28;20030;-75
2023/05/16 06:02:06;;;;;;;2.20;1.30;;;13.30;66.60;;;;;;4997427;28;20057;-76
2023/05/16 06:04:31;;;;;;;2.33;1.33;;;13.30;66.60;;;;;;5013324;28;20049;-76
2023/05/16 06:06:57;;;;;;;1.83;1.10;;;13.30;66.50;;;;;;5014529;28;20064;-76
2023/05/16 06:09:23;;;;;;;2.03;1.27;;;13.40;66.60;;;;;;5013504;28;20463;-76
2023/05/16 06:11:49;;;;;;;3.25;1.30;;;13.40;66.60;;;;;;5013811;28;20034;-76
2023/05/16 06:14:15;;;;;;;2.63;1.42;;;13.30;66.60;;;;;;5029845;28;20057;-77
2023/05/16 06:16:41;;;;;;;2.30;1.40;;;13.30;66.60;;;;;;5014967;28;20057;-76
2023/05/16 06:19:07;;;;;;;2.22;1.30;;;13.40;66.60;;;;;;5014630;28;20022;-79
2023/05/16 06:21:32;;;;;;;1.63;1.38;;;13.40;66.60;;;;;;5014606;28;20030;-76
2023/05/16 06:23:58;;;;;;;3.63;1.52;;;13.40;66.60;;;;;;4997154;28;20032;-76
2023/05/16 06:26:24;;;;;;;2.60;1.30;;;13.40;66.60;;;;;;4997515;28;20107;-76
2023/05/16 06:28:50;;;;;;;2.90;1.23;;;13.40;66.60;;;;;;5029642;28;20034;-76
2023/05/16 06:31:15;;;;;;;1.35;1.05;;;13.40;66.60;;;;;;5013492;28;20117;-75
2023/05/16 06:33:41;;;;;;;2.30;1.33;;;13.40;66.60;;;;;;5014369;28;20072;-76
2023/05/16 06:36:07;;;;;;;1.58;1.20;;;13.40;66.60;;;;;;4997026;28;20164;-77
2023/05/16 06:38:33;;;;;;;1.55;1.33;;;13.40;66.60;;;;;;5014270;28;20425;-76
2023/05/16 06:40:58;;;;;;;1.73;1.20;;;13.50;66.60;;;;;;4996545;28;20041;-76
2023/05/16 06:43:24;;;;;;;2.08;1.10;;;13.40;66.50;;;;;;5012883;28;20041;-76
2023/05/16 06:45:50;;;;;;;2.58;1.38;;;13.40;66.60;;;;;;5012632;28;20132;-76
2023/05/16 06:48:17;;;;;;;2.45;1.30;;;13.50;66.60;;;;;;5029419;28;20092;-76
2023/05/16 06:50:53;;;;;;;1.77;1.50;;;13.50;66.60;;;;;;5013794;28;20025;-75
2023/05/16 06:53:19;;;;;;;2.03;1.40;;;13.50;66.60;;;;;;5029388;28;20069;-76
2023/05/16 06:55:46;;;;;;;1.63;1.48;;;13.50;66.60;;;;;;5029928;28;20099;-75
2023/05/16 06:58:12;;;;;;;2.97;1.75;;;13.50;66.60;;;;;;5013961;28;20112;-75
2023/05/16 07:00:38;;;;;;;1.90;1.20;;;13.50;66.50;;;;;;5028862;28;20108;-76
2023/05/16 07:03:04;;;;;;;2.25;1.20;;;13.50;66.50;;;;;;5012442;28;20050;-75
2023/05/16 07:05:30;;;;;;;2.30;1.40;;;13.50;66.60;;;;;;5013375;28;20052;-76
2023/05/16 07:07:56;;;;;;;2.95;1.40;;;13.50;66.50;;;;;;5012751;28;20364;-75
2023/05/16 07:10:22;;;;;;;2.42;1.40;;;13.50;66.50;;;;;;5028778;28;20033;-75
2023/05/16 07:12:47;;;;;;;1.83;1.13;;;13.60;66.60;;;;;;5014033;28;20041;-75
2023/05/16 07:15:13;;;;;;;1.73;1.38;;;13.60;66.50;;;;;;5012857;28;20065;-75
2023/05/16 07:17:39;;;;;;;2.20;1.27;;;13.60;66.50;;;;;;5013081;28;20149;-75
2023/05/16 07:20:06;;;;;;;1.63;1.10;;;13.60;66.50;;;;;;5012797;28;20026;-76
2023/05/16 07:22:32;;;;;;;2.20;1.20;;;13.60;66.50;;;;;;5029035;28;20038;-77
2023/05/16 07:24:59;;;;;;;2.25;1.25;;;13.60;66.50;;;;;;5013989;28;20033;-76
2023/05/16 07:27:26;;;;;;;2.13;1.20;;;13.60;66.40;;;;;;5012438;28;20030;-76
2023/05/16 07:29:52;;;;;;;2.50;1.48;;;13.60;66.50;;;;;;5012448;28;20081;-76
2023/05/16 07:32:19;;;;;;;2.33;1.20;;;13.70;66.40;;;;;;5012193;28;20124;-75
2023/05/16 07:34:45;;;;;;;1.88;1.20;;;13.70;66.40;;;;;;5029003;28;20025;-76
2023/05/16 07:37:11;;;;;;;1.60;1.15;;;13.80;66.40;;;;;;5012741;28;20500;-75
2023/05/16 07:39:40;;;;;;;2.35;1.02;;;13.80;66.30;;;;;;5045751;28;20078;-76
2023/05/16 07:42:07;;;;;;;2.00;1.40;;;13.80;66.30;;;;;;5015189;28;20049;-75
2023/05/16 07:44:33;;;;;;;1.65;1.00;;;13.80;66.20;;;;;;5029567;28;20375;-75
2023/05/16 07:46:59;;;;;;;1.58;1.20;;;13.80;66.10;;;;;;5028924;28;20379;-76
2023/05/16 07:49:25;;;;;;;1.17;0.90;;;13.80;66.10;;;;;;5046044;28;20039;-75
2023/05/16 07:51:51;;;;;;;1.85;1.20;;;13.90;66.00;;;;;;5012677;28;20463;-75
2023/05/16 07:54:16;;;;;;;3.15;1.45;;;13.90;66.00;;;;;;5012408;28;20030;-75
2023/05/16 07:56:43;;;;;;;0.95;0.93;;;14.00;65.90;;;;;;5012145;28;20034;-76
2023/05/16 07:59:09;;;;;;;1.42;1.10;;;14.00;65.90;;;;;;4995998;28;20466;-76
2023/05/16 08:01:35;;;;;;;1.98;1.20;;;14.00;65.80;;;;;;5012934;28;20049;-75
2023/05/16 08:04:01;;;;;;;1.10;0.88;;;14.10;65.70;;;;;;5012277;28;20026;-75
2023/05/16 08:06:26;;;;;;;1.63;1.00;;;14.10;65.60;;;;;;5011528;28;20026;-76
2023/05/16 08:08:52;;;;;;;1.30;1.00;;;14.20;65.60;;;;;;4996335;28;20068;-76
2023/05/16 08:11:21;;;;;;;2.13;1.00;;;14.20;65.50;;;;;;4999368;28;20030;-75
2023/05/16 08:13:47;;;;;;;2.13;1.10;;;14.30;65.50;;;;;;5000477;28;20132;-75
2023/05/16 08:16:13;;;;;;;1.23;0.95;;;14.30;65.40;;;;;;4999399;28;20486;-76
2023/05/16 08:18:39;;;;;;;1.90;0.90;;;14.40;65.30;;;;;;5015666;28;20030;-76
2023/05/16 08:21:05;;;;;;;1.35;0.98;;;14.40;65.20;;;;;;5015337;28;20038;-75
2023/05/16 08:23:31;;;;;;;1.88;1.02;;;14.50;65.10;;;;;;5032833;28;20041;-76
2023/05/16 08:25:57;;;;;;;1.65;1.15;;;14.60;65.10;;;;;;5016128;28;20024;-76
2023/05/16 08:28:23;;;;;;;0.90;0.90;;;14.60;65.00;;;;;;5031626;28;20077;-76
2023/05/16 08:30:49;;;;;;;1.77;0.90;;;14.70;64.90;;;;;;5015921;28;20026;-76
2023/05/16 08:33:15;;;;;;;0.95;0.90;;;14.70;64.80;;;;;;5016101;28;20044;-76
2023/05/16 08:35:42;;;;;;;1.50;1.15;;;14.80;64.80;;;;;;5032165;28;20030;-76
2023/05/16 08:38:08;;;;;;;2.10;1.02;;;14.80;64.70;;;;;;5031664;28;20099;-75
2023/05/16 08:40:34;;;;;;;1.75;0.95;;;14.90;64.70;;;;;;5014996;28;20026;-76
2023/05/16 08:43:01;;;;;;;2.30;1.00;;;14.90;64.50;;;;;;5047959;28;20038;-76
2023/05/16 08:45:27;;;;;;;1.45;0.90;;;15.00;64.50;;;;;;5016119;28;20057;-76
2023/05/16 08:47:55;;;;;;;1.95;1.17;;;15.10;64.50;;;;;;4998970;28;20037;-76
2023/05/16 08:50:22;;;;;;;1.33;0.93;;;15.10;64.50;;;;;;5031755;28;20120;-75
2023/05/16 08:52:51;;;;;;;0.90;0.90;;;15.20;64.40;;;;;;5031407;28;20045;-75
2023/05/16 08:55:19;;;;;;;1.85;1.00;;;15.20;64.50;;;;;;5015858;28;20161;-75
2023/05/16 08:57:45;;;;;;;1.45;1.20;;;15.30;64.40;;;;;;5015787;28;20488;-75
2023/05/16 09:00:12;;;;;;;1.73;0.93;;;15.30;64.30;;;;;;5014737;28;20475;-76
2023/05/16 09:02:43;;;;;;;2.25;1.17;;;15.40;64.30;;;;;;5014608;28;20034;-75
2023/05/16 09:05:11;;;;;;;2.25;0.88;;;15.40;64.20;;;;;;5015222;28;20022;-76
2023/05/16 09:07:37;;;;;;;1.08;0.90;;;15.50;64.20;;;;;;5015659;28;20030;-76
2023/05/16 09:10:05;;;;;;;2.30;0.98;;;15.50;64.10;;;;;;5014758;28;20179;-76
2023/05/16 09:12:35;;;;;;;1.00;0.90;;;15.60;64.10;;;;;;4998958;28;20049;-75
2023/05/16 09:15:03;;;;;;;1.23;0.75;;;15.60;64.00;;;;;;5047715;28;20030;-76
2023/05/16 09:17:43;;;;;;;0.90;0.90;;;15.70;63.90;;;;;;5030767;28;20026;-76
2023/05/16 09:20:11;;;;;;;0.80;0.80;;;15.80;63.80;;;;;;5015007;28;20033;-76
2023/05/16 09:22:37;;;;;;;1.05;0.90;;;15.90;64.40;;;;;;4997470;28;20124;-76
2023/05/16 09:25:03;;;;;;;1.52;0.98;;;16.00;63.60;;;;;;5031018;28;20531;-76
2023/05/16 09:27:30;;;;;;;1.10;1.00;;;16.00;63.60;;;;;;4998032;28;20037;-75
2023/05/16 09:29:57;;;;;;;0.80;0.80;;;16.10;63.50;;;;;;5014315;28;20058;-76
2023/05/16 09:32:24;;;;;;;2.22;1.05;;;16.20;63.40;;;;;;5014082;28;20030;-75
2023/05/16 09:34:52;;;;;;;1.05;0.80;;;16.30;63.20;;;;;;5014196;28;20053;-75
2023/05/16 09:37:19;;;;;;;0.95;0.90;;;16.30;63.10;;;;;;5013855;28;20026;-73
2023/05/16 09:39:47;;;;;;;0.70;0.70;;;16.40;63.00;;;;;;5031001;28;20037;-73
2023/05/16 09:42:17;;;;;;;0.80;0.80;;;16.50;62.90;;;;;;5015388;28;20499;-75
2023/05/16 09:44:53;;;;;;;0.82;0.80;;;16.60;62.90;;;;;;5031034;28;20185;-75
2023/05/16 09:47:20;;;;;;;0.85;0.80;;;16.70;62.80;;;;;;5015437;28;20033;-74
2023/05/16 09:49:51;;;;;;;1.60;1.00;;;16.70;62.70;;;;;;5013711;28;20446;-73
2023/05/16 09:52:17;;;;;;;0.77;0.75;;;16.80;62.70;;;;;;5015678;28;20530;-75
2023/05/16 09:54:45;;;;;;;1.63;0.95;;;16.80;62.60;;;;;;5013575;28;20042;-75
2023/05/16 09:57:11;;;;;;;1.50;1.00;;;16.90;62.60;;;;;;5014721;28;20022;-75
2023/05/16 09:59:38;;;;;;;1.70;1.00;;;17.00;62.60;;;;;;5013461;28;20037;-75
2023/05/16 10:02:06;;;;;;;1.08;0.80;;;17.00;62.50;;;;;;5014768;28;20044;-74
2023/05/16 10:04:35;;;;;;;1.42;0.93;;;17.10;62.50;;;;;;5014484;28;20022;-74
2023/05/16 10:07:05;;;;;;;1.15;0.82;;;17.10;63.20;;;;;;5013615;28;20033;-73
2023/05/16 10:09:32;;;;;;;0.80;0.80;;;17.20;62.50;;;;;;5029926;28;20054;-76
2023/05/16 10:12:02;;;;;;;0.80;0.80;;;17.20;62.30;;;;;;5014449;28;20025;-76
2023/05/16 10:14:33;;;;;;;1.95;0.80;;;17.30;62.40;;;;;;5030756;28;20371;-76
2023/05/16 10:17:00;;;;;;;0.80;0.80;;;17.40;62.30;;;;;;5013320;28;20037;-75
2023/05/16 10:19:27;;;;;;;0.77;0.77;;;17.40;62.30;;;;;;5013509;28;20034;-75
2023/05/16 10:21:59;;;;;;;1.00;0.80;;;17.50;62.20;;;;;;5029769;28;20173;-76
2023/05/16 10:24:51;;;;;;;1.05;0.90;;;17.60;62.10;;;;;;5030045;28;20121;-77
2023/05/16 10:27:17;;;;;;;1.52;1.00;;;17.60;62.00;;;;;;5003067;28;20051;-77
2023/05/16 10:29:43;;;;;;;1.23;0.80;;;17.70;61.90;;;;;;5033829;28;20220;-77
2023/05/16 10:32:11;;;;;;;0.85;0.80;;;17.80;62.00;;;;;;5014805;28;20034;-77
2023/05/16 10:34:38;;;;;;;1.15;0.90;;;17.90;61.90;;;;;;5013643;28;20026;-77
2023/05/16 10:37:04;;;;;;;1.35;0.80;;;17.90;61.80;;;;;;5029740;28;20042;-75
2023/05/16 10:39:32;;;;;;;0.80;0.80;;;18.00;61.70;;;;;;5046322;28;20486;-76
2023/05/16 10:41:58;;;;;;;0.95;0.85;;;18.00;61.70;;;;;;5013324;28;20032;-76
2023/05/16 10:44:24;;;;;;;1.13;0.80;;;18.00;61.70;;;;;;5046165;28;20055;-78
2023/05/16 10:46:50;;;;;;;1.40;0.90;;;18.10;62.30;;;;;;5013277;28;20140;-75
2023/05/16 10:49:23;;;;;;;1.55;0.90;;;18.20;61.60;;;;;;5014363;28;20121;-75
2023/05/16 10:52:09;;;;;;;2.55;0.80;;;18.20;61.60;;;;;;5014075;28;20030;-75
2023/05/16 10:54:36;;;;;;;1.38;0.90;;;18.30;61.70;;;;;;5014328;28;20033;-75
2023/05/16 10:57:22;;;;;;;0.68;0.68;;;18.30;61.50;;;;;;5045808;28;20026;-75
2023/05/16 10:59:52;;;;;;;0.60;0.60;;;18.40;61.60;;;;;;5046285;28;20033;-77
2023/05/16 11:02:23;;;;;;;0.63;0.63;;;18.50;61.50;;;;;;5029764;28;20125;-76
2023/05/16 11:04:53;;;;;;;2.35;0.90;;;18.50;61.50;;;;;;4996216;28;20030;-76
2023/05/16 11:07:21;;;;;;;1.73;0.90;;;18.50;61.40;;;;;;5013143;28;20037;-76
2023/05/16 11:10:07;;;;;;;1.13;0.70;;;18.60;61.50;;;;;;5028789;28;20455;-75
2023/05/16 11:12:51;;;;;;;2.20;0.88;;;18.60;61.50;;;;;;5012539;28;20437;-75
2023/05/16 11:15:22;;;;;;;1.38;0.90;;;18.60;61.50;;;;;;5013838;28;20034;-75
2023/05/16 11:17:48;;;;;;;1.88;0.80;;;18.70;61.50;;;;;;4996940;28;20402;-76
2023/05/16 11:20:31;;;;;;;1.85;1.00;;;18.70;61.40;;;;;;5028506;28;20029;-75
2023/05/16 11:23:15;;;;;;;1.65;0.90;;;18.70;61.40;;;;;;5028716;28;20033;-75
2023/05/16 11:25:44;;;;;;;1.90;0.80;;;18.70;61.40;;;;;;5012288;28;20510;-75
2023/05/16 11:28:11;;;;;;;1.73;1.00;;;18.80;61.40;;;;;;4996617;28;20029;-75
2023/05/16 11:30:51;;;;;;;1.45;0.88;;;18.80;61.40;;;;;;5013859;28;20034;-75
2023/05/16 11:33:17;;;;;;;0.73;0.73;;;18.80;61.40;;;;;;5029216;28;20463;-75
2023/05/16 11:36:00;;;;;;;1.23;0.90;;;18.90;61.40;;;;;;5029092;28;20030;-76
2023/05/16 11:38:26;;;;;;;1.02;0.70;;;18.90;61.40;;;;;;5029558;28;20463;-75
2023/05/16 11:40:52;;;;;;;1.77;0.88;;;18.90;61.40;;;;;;5029203;28;20065;-75
2023/05/16 11:43:18;;;;;;;1.40;1.05;;;18.90;61.40;;;;;;5013662;28;20065;-75
2023/05/16 11:45:45;;;;;;;0.90;0.80;;;19.00;61.50;;;;;;5016266;28;20061;-75
2023/05/16 11:48:11;;;;;;;1.90;0.90;;;19.00;61.30;;;;;;5000620;28;20034;-75
2023/05/16 11:50:37;;;;;;;2.33;0.90;;;19.00;61.20;;;;;;5049038;28;20032;-76
2023/05/16 11:53:03;;;;;;;2.78;1.00;;;19.00;61.20;;;;;;5016122;28;20038;-76
2023/05/16 11:55:29;;;;;;;1.85;0.98;;;19.00;61.10;;;;;;5016235;28;20038;-76
2023/05/16 11:57:59;;;;;;;1.23;0.70;;;19.00;61.10;;;;;;5033427;28;20105;-75
2023/05/16 12:00:26;;;;;;;1.98;1.10;;;19.10;61.10;;;;;;5032710;28;20038;-76
2023/05/16 12:02:53;;;;;;;1.35;0.80;;;19.10;61.20;;;;;;5016992;28;20498;-75
2023/05/16 12:05:24;;;;;;;1.52;0.80;;;19.10;61.10;;;;;;5015905;28;20030;-75
2023/05/16 12:07:53;;;;;;;1.83;0.90;;;19.10;61.00;;;;;;5016148;28;20034;-76
2023/05/16 12:10:19;;;;;;;1.35;0.90;;;19.20;60.90;;;;;;5032209;28;20030;-75
2023/05/16 12:12:47;;;;;;;1.00;0.90;;;19.20;60.80;;;;;;5032176;28;20037;-75
2023/05/16 12:15:14;;;;;;;3.53;1.10;;;19.20;60.70;;;;;;5032663;28;20026;-75
2023/05/16 12:17:40;;;;;;;1.40;0.90;;;19.20;60.50;;;;;;5032245;28;20030;-75
2023/05/16 12:20:13;;;;;;;1.52;0.98;;;19.20;60.50;;;;;;4999406;28;20036;-75
2023/05/16 12:22:40;;;;;;;1.40;0.90;;;19.30;60.50;;;;;;5048848;28;20030;-75
2023/05/16 12:25:24;;;;;;;1.25;0.90;;;19.30;60.50;;;;;;5049124;28;20031;-75
2023/05/16 12:27:52;;;;;;;1.73;1.00;;;19.30;60.50;;;;;;5015931;28;20040;-75
2023/05/16 12:30:20;;;;;;;0.98;0.80;;;19.30;60.40;;;;;;4999273;28;20054;-75
2023/05/16 12:32:52;;;;;;;1.60;0.88;;;19.30;60.30;;;;;;5015806;28;20140;-75
2023/05/16 12:35:19;;;;;;;2.58;0.90;;;19.40;60.10;;;;;;5032007;28;20045;-75
2023/05/16 12:37:45;;;;;;;1.67;0.90;;;19.40;60.10;;;;;;5048789;28;20026;-74
2023/05/16 12:40:12;;;;;;;2.42;1.10;;;19.40;59.80;;;;;;5004334;28;20034;-75
2023/05/16 12:42:37;;;;;;;1.60;1.00;;;19.40;59.80;;;;;;4983314;28;20068;-75
2023/05/16 12:45:04;;;;;;;1.50;0.80;;;19.40;59.70;;;;;;4999133;28;20081;-75
2023/05/16 12:47:37;;;;;;;2.05;1.20;;;19.40;59.70;;;;;;5015576;28;20045;-75
2023/05/16 12:50:10;;;;;;;1.80;0.90;;;19.50;59.70;;;;;;5015904;28;20034;-75